»·PEaware :: N792VA KONT-KCRQ

N792VA :: KONT-KCRQ

FLIGHT INFORMATION

Flight Status: Arrived
Operator: Privately registered:
United States
More flights under this callsign
Pilot: Scott M. (16181)
Aircraft: Unknown
(P28U)
More flights by this aircraft type
Origin: KONT Ontario Intl
United States
Destination: KCRQ McClellan-Palomar
United States
More flights between these airports :: More routes between these airports
Route:
File this flight plan on PilotEdge
Remarks:
Altitude:
(Current/Filed)
7,500ft
Speed:
(Current/Filed)
180kts
Departed: 01-Jul-18 04:53 PM
Arrived: 01-Jul-18 05:27 PM
Distance/Time
Traveled:
58nm/0:34
Distance/Time
To Go:
Arrived

Flight Plot

Page will automatically refresh every two minutes.


Map Options




Map Legend


Flown Route
Filed Route
Departure Airport
Arrival Airport
Navaid (VOR, NDB)
Fix

Horizontal Profiles

Position Reports

Time Latitude Longitude Heading Altitude Ground
Speed
01-Jul-18 16:35 34.051074 -117.603051 269 907ft 0kts
01-Jul-18 16:36 34.051074 -117.603051 269 907ft 0kts
01-Jul-18 16:37 34.051074 -117.603051 269 907ft 0kts
01-Jul-18 16:38 34.051074 -117.603051 269 907ft 0kts
01-Jul-18 16:39 34.051074 -117.603051 269 907ft 0kts
01-Jul-18 16:40 34.051074 -117.603051 269 907ft 0kts
01-Jul-18 16:41 34.051074 -117.603051 269 907ft 0kts
01-Jul-18 16:42 34.051074 -117.603051 269 907ft 0kts
01-Jul-18 16:43 34.051074 -117.603051 269 907ft 0kts
01-Jul-18 16:44 34.051074 -117.603051 269 907ft 0kts
01-Jul-18 16:45 34.051073 -117.603082 264 907ft 0kts
01-Jul-18 16:46 34.052973 -117.603495 343 914ft 7kts
01-Jul-18 16:47 34.053848 -117.600350 89 914ft 18kts
01-Jul-18 16:48 34.053854 -117.594459 90 914ft 17kts
01-Jul-18 16:49 34.053866 -117.589063 90 914ft 15kts
01-Jul-18 16:50 34.053860 -117.583508 89 915ft 15kts
01-Jul-18 16:51 34.054039 -117.582444 32 916ft 0kts
01-Jul-18 16:52 34.054307 -117.582369 0 918ft 8kts
01-Jul-18 16:53 34.054968 -117.585132 269 918ft 44kts
01-Jul-18 16:54 34.053070 -117.611402 246 1924ft 91kts
01-Jul-18 16:55 34.041155 -117.640795 246 3057ft 109kts
01-Jul-18 16:56 34.025340 -117.680883 248 3009ft 140kts
01-Jul-18 16:57 34.010097 -117.719312 208 2838ft 136kts
01-Jul-18 16:58 33.984581 -117.690860 130 3458ft 126kts
01-Jul-18 16:59 33.963910 -117.652441 122 4388ft 142kts
01-Jul-18 17:00 33.944638 -117.609971 110 5323ft 146kts
01-Jul-18 17:01 33.922330 -117.567734 118 6074ft 150kts
01-Jul-18 17:02 33.900598 -117.527915 115 7171ft 142kts
01-Jul-18 17:03 33.880770 -117.493499 131 7490ft 167kts
01-Jul-18 17:04 33.843858 -117.465288 147 7477ft 172kts
01-Jul-18 17:05 33.803124 -117.439069 148 7478ft 164kts
01-Jul-18 17:06 33.763038 -117.413397 148 7482ft 163kts
01-Jul-18 17:07 33.722872 -117.388014 148 7485ft 164kts
01-Jul-18 17:08 33.682868 -117.362436 151 7504ft 155kts
01-Jul-18 17:09 33.650246 -117.341672 151 7499ft 134kts
01-Jul-18 17:10 33.615988 -117.320193 151 7500ft 141kts
01-Jul-18 17:11 33.581239 -117.297782 150 7502ft 142kts
01-Jul-18 17:12 33.546135 -117.275398 150 7367ft 145kts
01-Jul-18 17:13 33.510418 -117.252693 151 6633ft 146kts
01-Jul-18 17:14 33.475307 -117.230386 152 6048ft 140kts
01-Jul-18 17:15 33.440492 -117.209829 177 5431ft 147kts
01-Jul-18 17:16 33.404493 -117.216533 188 5495ft 125kts
01-Jul-18 17:17 33.370615 -117.224312 189 5283ft 129kts
01-Jul-18 17:18 33.335830 -117.232377 190 4795ft 125kts
01-Jul-18 17:19 33.302882 -117.239577 187 4165ft 119kts
01-Jul-18 17:20 33.270410 -117.239618 175 3544ft 115kts
01-Jul-18 17:21 33.238492 -117.234690 175 3135ft 117kts
01-Jul-18 17:22 33.209577 -117.232095 184 2901ft 98kts
01-Jul-18 17:23 33.182386 -117.233249 186 2570ft 100kts
01-Jul-18 17:24 33.156511 -117.237283 192 2144ft 88kts
01-Jul-18 17:25 33.134520 -117.247163 227 1370ft 88kts
01-Jul-18 17:26 33.129377 -117.273018 260 337ft 74kts
01-Jul-18 17:27 33.127630 -117.278793 78 308ft 11kts

Navigation Log

Ident Type
1. KONT Airport
2. KCRQ Airport